Coastal Inspiration — CFN4970 — position and weather

sailwx.info

Track history (hours):
 
Tides and Currents Weather Stations Pressure Air Temp Water Temp Dewpoint Dewpoint Depression Visibility Wind Speed Wind Dir Waves Ship Positions

Coastal Inspiration

Last reported at 2015-Mar-28 18:33 UTC. Time now 2015-Mar-28 18:56 UTC.
Position N 49°09' W 123°36'.

Length 160 m; draft 6 m.

Type: Passenger vessel. MMSI: 316011408.

Date/timePositionNaut miles runAvg speedWind from/ knotsBaromVisibWave heightAir tempDewpointWater temp
2015-Mar-28 18:33N 49°09' W 123°36'2019.9
2015-Mar-28 17:33N 49°00' W 123°09'3 3.4
2015-Mar-28 16:33N 49°00' W 123°15'1817.5
2015-Mar-28 15:33N 49°09' W 123°38'10 9.9
2015-Mar-28 14:30N 49°10' W 123°53'0 0.0
2015-Mar-28 12:33N 49°10' W 123°53'0 0.0
2015-Mar-28 10:33N 49°10' W 123°53'0 0.0
2015-Mar-28 09:29N 49°10' W 123°53'0 0.0
2015-Mar-28 08:31N 49°10' W 123°53'1 1.2
2015-Mar-28 07:33N 49°11' W 123°53'1818.1
2015-Mar-28 06:33N 49°07' W 123°26'1413.7
2015-Mar-28 05:33N 49°00' W 123°08'1312.8
2015-Mar-28 04:33N 49°05' W 123°26'1817.9
2015-Mar-28 03:33N 49°13' W 123°51'1 1.1
2015-Mar-28 02:33N 49°13' W 123°49'1919.5
2015-Mar-28 01:33N 49°05' W 123°22'1010.5
2015-Mar-28 00:33N 49°00' W 123°08'1413.6
2015-Mar-27 23:33N 49°05' W 123°28'1717.5
2015-Mar-27 22:34N 49°12' W 123°51'0 0.4
2015-Mar-27 21:33N 49°13' W 123°51'2019.8
2015-Mar-27 20:34N 49°05' W 123°23'1110.9
2015-Mar-27 19:33N 49°00' W 123°08'1212.2
2015-Mar-27 18:34N 49°04' W 123°26'1818.2
2015-Mar-27 17:33N 49°13' W 123°50'1 1.0
2015-Mar-27 16:33N 49°13' W 123°51'1717.5
2015-Mar-27 15:34N 49°06' W 123°27'1413.5
2015-Mar-27 14:33N 49°00' W 123°08'1312.7
2015-Mar-27 13:34N 49°04' W 123°26'1817.6
2015-Mar-27 12:34N 49°13' W 123°49'4 4.1
2015-Mar-27 11:31N 49°10' W 123°53'0 0.0
2015-Mar-27 10:18N 49°10' W 123°53'0 0.0
2015-Mar-27 09:30N 49°10' W 123°53'0 0.0
2015-Mar-27 08:26N 49°10' W 123°53'0 0.3
2015-Mar-27 07:33N 49°10' W 123°53'1616.3
2015-Mar-27 06:33N 49°07' W 123°29'1515.6
2015-Mar-27 05:33N 49°00' W 123°08'1312.8
2015-Mar-27 04:34N 49°04' W 123°27'1818.3
2015-Mar-27 03:33N 49°13' W 123°51'0 0.3
2015-Mar-27 02:34N 49°13' W 123°51'1818.5
2015-Mar-27 01:34N 49°06' W 123°25'1212.3
2015-Mar-27 00:34N 49°00' W 123°08'1312.7
2015-Mar-26 23:34N 49°04' W 123°26'1817.6
2015-Mar-26 22:33N 49°13' W 123°50'3 3.3
2015-Mar-26 21:33N 49°10' W 123°53'1716.8
2015-Mar-26 20:33N 49°07' W 123°28'1514.8
2015-Mar-26 19:33N 49°00' W 123°08'1111.4
2015-Mar-26 18:33N 49°03' W 123°25'1919.1
2015-Mar-26 17:33N 49°13' W 123°50'2 2.1
2015-Mar-26 16:34N 49°12' W 123°53'1818.5
2015-Mar-26 15:33N 49°06' W 123°26'1313.5
2015-Mar-26 14:34N 49°00' W 123°08'1111.4
2015-Mar-26 13:33N 49°03' W 123°25'1919.0
2015-Mar-26 12:33N 49°13' W 123°50'4 3.9
2015-Mar-26 11:33N 49°10' W 123°53'0 0.0
2015-Mar-26 10:33N 49°10' W 123°53'0 0.0
2015-Mar-26 09:33N 49°10' W 123°53'0 0.0
2015-Mar-26 08:32N 49°10' W 123°53'0 0.4
2015-Mar-26 07:33N 49°10' W 123°53'1716.9
2015-Mar-26 06:33N 49°07' W 123°28'1514.9
2015-Mar-26 05:34N 49°00' W 123°08'1313.2
2015-Mar-26 04:33N 49°05' W 123°27'1818.0
2015-Mar-26 03:33N 49°13' W 123°52'1 1.0
2015-Mar-26 02:33N 49°13' W 123°50'1818.4
2015-Mar-26 01:33N 49°06' W 123°25'1212.2
2015-Mar-26 00:33N 49°00' W 123°08'1413.6
2015-Mar-25 23:33N 49°05' W 123°28'1717.3
2015-Mar-25 22:34N 49°13' W 123°51'1 1.4
2015-Mar-25 21:33N 49°12' W 123°53'1818.1
2015-Mar-25 20:33N 49°07' W 123°27'1413.9
2015-Mar-25 19:33N 49°00' W 123°08'1111.5
2015-Mar-25 18:34N 49°03' W 123°25'1918.6
2015-Mar-25 17:34N 49°13' W 123°49'3 3.1
2015-Mar-25 16:33N 49°12' W 123°53'1817.9
2015-Mar-25 15:33N 49°07' W 123°27'1414.0
2015-Mar-25 14:33N 49°00' W 123°08'1211.9
2015-Mar-25 13:33N 49°04' W 123°25'1818.3
2015-Mar-25 12:33N 49°13' W 123°50'4 4.1
2015-Mar-25 11:33N 49°10' W 123°53'0 0.0
2015-Mar-25 10:32N 49°10' W 123°53'0 0.0
2015-Mar-25 09:34N 49°10' W 123°53'0 0.0
2015-Mar-25 08:34N 49°10' W 123°53'0 0.2
2015-Mar-25 07:33N 49°10' W 123°53'1616.4
2015-Mar-25 06:33N 49°07' W 123°29'1515.2
2015-Mar-25 05:33N 49°00' W 123°08'1110.6
2015-Mar-25 04:33N 49°03' W 123°23'1919.3
2015-Mar-25 03:33N 49°13' W 123°49'2 1.7
2015-Mar-25 02:33N 49°13' W 123°51'1919.0
2015-Mar-25 01:33N 49°06' W 123°25'1212.1
2015-Mar-25 00:33N 49°00' W 123°08'1312.6
2015-Mar-24 23:33N 49°04' W 123°26'1818.0
2015-Mar-24 22:33N 49°13' W 123°50'2 2.2
2015-Mar-24 21:33N 49°12' W 123°53'1817.7
2015-Mar-24 20:33N 49°07' W 123°27'1414.2
2015-Mar-24 19:33N 49°00' W 123°08'1010.1
2015-Mar-24 18:33N 49°03' W 123°23'1919.5
2015-Mar-24 17:34N 49°13' W 123°48'3 3.4
2015-Mar-24 16:34N 49°12' W 123°53'1817.8
2015-Mar-24 15:33N 49°07' W 123°27'1414.2
2015-Mar-24 14:34N 49°00' W 123°08'1211.8
2015-Mar-24 13:33N 49°04' W 123°25'1817.9
2015-Mar-24 12:33N 49°13' W 123°49'4 4.1
2015-Mar-24 11:29N 49°10' W 123°53'0 0.0
2015-Mar-24 10:28N 49°10' W 123°53'1 0.2
2015-Mar-24 07:32N 49°10' W 123°53'1717.0
2015-Mar-24 06:32N 49°07' W 123°28'1514.9
2015-Mar-24 05:33N 49°00' W 123°08'1111.4
2015-Mar-24 04:34N 49°04' W 123°25'1918.8
2015-Mar-24 03:33N 49°13' W 123°50'1 1.4
2015-Mar-24 02:32N 49°13' W 123°52'2020.8
2015-Mar-24 01:34N 49°05' W 123°23'1111.0
2015-Mar-24 00:33N 49°00' W 123°08'1313.2
2015-Mar-23 23:34N 49°04' W 123°27'1817.7
2015-Mar-23 22:33N 49°13' W 123°51'0 0.3
2015-Mar-23 21:33N 49°13' W 123°52'1818.5
2015-Mar-23 20:33N 49°06' W 123°25'1312.8
2015-Mar-23 19:34N 49°00' W 123°08'1111.2
2015-Mar-23 18:34N 49°03' W 123°24'1918.6
2015-Mar-23 17:33N 49°13' W 123°49'3 3.1
2015-Mar-23 16:33N 49°12' W 123°53'1918.5
2015-Mar-23 15:33N 49°06' W 123°26'1313.4
2015-Mar-23 14:33N 49°00' W 123°08'1313.0
2015-Mar-23 13:33N 49°04' W 123°27'1717.5
2015-Mar-23 12:33N 49°13' W 123°50'4 3.9
2015-Mar-23 11:33N 49°10' W 123°53'0 0.0
2015-Mar-23 10:33N 49°10' W 123°53'0 0.0
2015-Mar-23 09:32N 49°10' W 123°53'0 0.0
2015-Mar-23 08:32N 49°10' W 123°53'0 0.5
2015-Mar-23 07:33N 49°10' W 123°53'1616.6
2015-Mar-23 06:33N 49°07' W 123°29'1515.2
2015-Mar-23 05:33N 49°00' W 123°08'1212.2
2015-Mar-23 04:34N 49°04' W 123°26'1919.4
2015-Mar-23 03:33N 49°13' W 123°52'2 2.2
2015-Mar-23 02:33N 49°13' W 123°49'1717.3
2015-Mar-23 01:33N 49°06' W 123°25'1212.4
2015-Mar-23 00:33N 49°00' W 123°08'1212.4
2015-Mar-22 23:33N 49°04' W 123°26'1918.9
2015-Mar-22 22:33N 49°12' W 123°52'1 1.0
2015-Mar-22 21:34N 49°12' W 123°53'1918.9
2015-Mar-22 20:33N 49°06' W 123°26'1313.1
2015-Mar-22 19:33N 49°00' W 123°08'1212.2
2015-Mar-22 18:33N 49°04' W 123°26'1818.2
2015-Mar-22 17:34N 49°13' W 123°50'4 3.1
2015-Mar-22 16:21N 49°10' W 123°53'0 0.0
2015-Mar-22 15:14N 49°10' W 123°53'0 0.0
2015-Mar-22 13:07N 49°10' W 123°53'0 0.0
2015-Mar-22 12:25N 49°10' W 123°53'0 0.0
2015-Mar-22 10:24N 49°10' W 123°53'0 0.0
2015-Mar-22 09:30N 49°10' W 123°53'0 0.0
2015-Mar-22 08:08N 49°10' W 123°53'0 0.0
2015-Mar-22 07:26N 49°10' W 123°53'0 0.0
2015-Mar-22 06:31N 49°10' W 123°53'0 0.0
2015-Mar-22 05:28N 49°10' W 123°53'0 0.0
2015-Mar-22 04:31N 49°10' W 123°53'0 0.0
2015-Mar-22 03:12N 49°10' W 123°53'0 0.0
2015-Mar-22 02:15N 49°10' W 123°53'0 0.0
2015-Mar-22 01:32N 49°10' W 123°53'0 0.0
2015-Mar-22 00:32N 49°10' W 123°53'9 9.0
2015-Mar-21 23:32N 49°11' W 123°40'1919.9
2015-Mar-21 22:34N 49°01' W 123°15'1 1.0
2015-Mar-21 21:34N 49°00' W 123°14'1817.6
2015-Mar-21 20:33N 49°09' W 123°37'11 9.3
2015-Mar-21 19:25N 49°10' W 123°53'910.5
2015-Mar-21 18:33N 49°11' W 123°40'1818.5
2015-Mar-21 17:34N 49°02' W 123°15'1 1.2
2015-Mar-21 16:33N 49°00' W 123°15'1817.6
2015-Mar-21 15:33N 49°10' W 123°38'1010.3
2015-Mar-21 14:33N 49°10' W 123°53'0 0.0
2015-Mar-21 13:33N 49°10' W 123°53'0 0.0
2015-Mar-21 12:32N 49°10' W 123°53'0 0.0
2015-Mar-21 11:32N 49°10' W 123°53'0 0.0
2015-Mar-21 10:25N 49°10' W 123°53'0 0.0
2015-Mar-21 08:19N 49°10' W 123°53'0 0.6
2015-Mar-21 07:33N 49°10' W 123°53'1716.7
2015-Mar-21 06:32N 49°07' W 123°28'1515.1
2015-Mar-21 05:34N 49°00' W 123°08'1212.0
2015-Mar-21 04:33N 49°04' W 123°25'1818.3
2015-Mar-21 03:33N 49°13' W 123°50'2 1.9
2015-Mar-21 02:33N 49°12' W 123°52'2019.9
2015-Mar-21 01:34N 49°05' W 123°24'1211.6
2015-Mar-21 00:33N 49°00' W 123°08'1514.5
2015-Mar-20 23:33N 49°05' W 123°29'1717.2
2015-Mar-20 22:33N 49°12' W 123°53'1 0.9
2015-Mar-20 21:33N 49°13' W 123°52'1818.3
2015-Mar-20 20:33N 49°06' W 123°26'1313.3
2015-Mar-20 19:33N 49°00' W 123°08'1212.2
2015-Mar-20 18:33N 49°04' W 123°25'1918.7
2015-Mar-20 17:33N 49°13' W 123°50'1 0.8
2015-Mar-20 16:33N 49°13' W 123°51'1919.4
2015-Mar-20 15:33N 49°05' W 123°24'1111.5
2015-Mar-20 14:33N 49°00' W 123°08'1312.8
2015-Mar-20 13:33N 49°05' W 123°27'1918.5
2015-Mar-20 12:33N 49°12' W 123°53'2 1.9
2015-Mar-20 11:19N 49°10' W 123°53'0 0.0
2015-Mar-20 10:31N 49°10' W 123°53'1 0.2
2015-Mar-20 07:33N 49°10' W 123°53'1717.4
2015-Mar-20 06:33N 49°06' W 123°27'1414.2
2015-Mar-20 05:34N 49°00' W 123°08'1413.6
2015-Mar-20 04:33N 49°05' W 123°28'1818.2
2015-Mar-20 03:33N 49°12' W 123°53'4 3.6
2015-Mar-20 02:33N 49°13' W 123°48'2020.0
2015-Mar-20 01:34N 49°04' W 123°21'9 9.2
2015-Mar-20 00:33N 49°00' W 123°08'1413.9
2015-Mar-19 23:33N 49°05' W 123°28'1817.7
2015-Mar-19 22:33N 49°12' W 123°53'0 0.4
2015-Mar-19 21:33N 49°13' W 123°52'1818.0
2015-Mar-19 20:33N 49°06' W 123°27'1412.5
2015-Mar-19 19:28N 49°00' W 123°08'1112.6
2015-Mar-19 18:34N 49°03' W 123°25'1918.5
2015-Mar-19 17:33N 49°13' W 123°49'2 1.7
2015-Mar-19 16:33N 49°13' W 123°51'1818.0
2015-Mar-19 15:34N 49°06' W 123°26'1313.1
2015-Mar-19 14:34N 49°00' W 123°08'1212.4
2015-Mar-19 13:33N 49°04' W 123°26'1818.1
2015-Mar-19 12:33N 49°13' W 123°50'4 3.0
2015-Mar-19 11:17N 49°10' W 123°53'0 0.0
2015-Mar-19 09:31N 49°10' W 123°53'0 0.0
2015-Mar-19 08:28N 49°10' W 123°53'1 1.2
2015-Mar-19 07:33N 49°11' W 123°53'1716.9
2015-Mar-19 06:33N 49°07' W 123°28'1514.7
2015-Mar-19 05:33N 49°00' W 123°08'1212.5
2015-Mar-19 04:33N 49°04' W 123°26'1818.5
2015-Mar-19 03:33N 49°13' W 123°51'0 0.3
2015-Mar-19 02:33N 49°13' W 123°51'1818.2
2015-Mar-19 01:33N 49°06' W 123°26'1312.9
2015-Mar-19 00:33N 49°00' W 123°08'1313.4
2015-Mar-18 23:34N 49°05' W 123°27'1818.1
2015-Mar-18 22:34N 49°12' W 123°53'1 0.7
2015-Mar-18 21:33N 49°13' W 123°52'1817.8
2015-Mar-18 20:33N 49°06' W 123°26'1313.0
2015-Mar-18 19:31N 49°00' W 123°08'1212.3
2015-Mar-18 18:33N 49°04' W 123°25'  
Track history (hours):
 
Tides and Currents Weather Stations Pressure Air Temp Water Temp Dewpoint Dewpoint Depression Visibility Wind Speed Wind Dir Waves Ship Positions

Coastal Inspiration

Last reported at 2015-Mar-28 18:33 UTC. Time now 2015-Mar-28 18:56 UTC.
Position N 49°09' W 123°36'.

Length 160 m; draft 6 m.

Type: Passenger vessel. MMSI: 316011408.

Date/timePositionNaut miles runAvg speedWind from/ knotsBaromVisibWave heightAir tempDewpointWater temp
2015-Mar-28 18:33N 49°09' W 123°36'2019.9
2015-Mar-28 17:33N 49°00' W 123°09'3 3.4
2015-Mar-28 16:33N 49°00' W 123°15'1817.5
2015-Mar-28 15:33N 49°09' W 123°38'10 9.9
2015-Mar-28 14:30N 49°10' W 123°53'0 0.0
2015-Mar-28 12:33N 49°10' W 123°53'0 0.0
2015-Mar-28 10:33N 49°10' W 123°53'0 0.0
2015-Mar-28 09:29N 49°10' W 123°53'0 0.0
2015-Mar-28 08:31N 49°10' W 123°53'1 1.2
2015-Mar-28 07:33N 49°11' W 123°53'1818.1
2015-Mar-28 06:33N 49°07' W 123°26'1413.7
2015-Mar-28 05:33N 49°00' W 123°08'1312.8
2015-Mar-28 04:33N 49°05' W 123°26'1817.9
2015-Mar-28 03:33N 49°13' W 123°51'1 1.1
2015-Mar-28 02:33N 49°13' W 123°49'1919.5
2015-Mar-28 01:33N 49°05' W 123°22'1010.5
2015-Mar-28 00:33N 49°00' W 123°08'1413.6
2015-Mar-27 23:33N 49°05' W 123°28'1717.5
2015-Mar-27 22:34N 49°12' W 123°51'0 0.4
2015-Mar-27 21:33N 49°13' W 123°51'2019.8
2015-Mar-27 20:34N 49°05' W 123°23'1110.9
2015-Mar-27 19:33N 49°00' W 123°08'1212.2
2015-Mar-27 18:34N 49°04' W 123°26'1818.2
2015-Mar-27 17:33N 49°13' W 123°50'1 1.0
2015-Mar-27 16:33N 49°13' W 123°51'1717.5
2015-Mar-27 15:34N 49°06' W 123°27'1413.5
2015-Mar-27 14:33N 49°00' W 123°08'1312.7
2015-Mar-27 13:34N 49°04' W 123°26'1817.6
2015-Mar-27 12:34N 49°13' W 123°49'4 4.1
2015-Mar-27 11:31N 49°10' W 123°53'0 0.0
2015-Mar-27 10:18N 49°10' W 123°53'0 0.0
2015-Mar-27 09:30N 49°10' W 123°53'0 0.0
2015-Mar-27 08:26N 49°10' W 123°53'0 0.3
2015-Mar-27 07:33N 49°10' W 123°53'1616.3
2015-Mar-27 06:33N 49°07' W 123°29'1515.6
2015-Mar-27 05:33N 49°00' W 123°08'1312.8
2015-Mar-27 04:34N 49°04' W 123°27'1818.3
2015-Mar-27 03:33N 49°13' W 123°51'0 0.3
2015-Mar-27 02:34N 49°13' W 123°51'1818.5
2015-Mar-27 01:34N 49°06' W 123°25'1212.3
2015-Mar-27 00:34N 49°00' W 123°08'1312.7
2015-Mar-26 23:34N 49°04' W 123°26'1817.6
2015-Mar-26 22:33N 49°13' W 123°50'3 3.3
2015-Mar-26 21:33N 49°10' W 123°53'1716.8
2015-Mar-26 20:33N 49°07' W 123°28'1514.8
2015-Mar-26 19:33N 49°00' W 123°08'1111.4
2015-Mar-26 18:33N 49°03' W 123°25'1919.1
2015-Mar-26 17:33N 49°13' W 123°50'2 2.1
2015-Mar-26 16:34N 49°12' W 123°53'1818.5
2015-Mar-26 15:33N 49°06' W 123°26'1313.5
2015-Mar-26 14:34N 49°00' W 123°08'1111.4
2015-Mar-26 13:33N 49°03' W 123°25'1919.0
2015-Mar-26 12:33N 49°13' W 123°50'4 3.9
2015-Mar-26 11:33N 49°10' W 123°53'0 0.0
2015-Mar-26 10:33N 49°10' W 123°53'0 0.0
2015-Mar-26 09:33N 49°10' W 123°53'0 0.0
2015-Mar-26 08:32N 49°10' W 123°53'0 0.4
2015-Mar-26 07:33N 49°10' W 123°53'1716.9
2015-Mar-26 06:33N 49°07' W 123°28'1514.9
2015-Mar-26 05:34N 49°00' W 123°08'1313.2
2015-Mar-26 04:33N 49°05' W 123°27'1818.0
2015-Mar-26 03:33N 49°13' W 123°52'1 1.0
2015-Mar-26 02:33N 49°13' W 123°50'1818.4
2015-Mar-26 01:33N 49°06' W 123°25'1212.2
2015-Mar-26 00:33N 49°00' W 123°08'1413.6
2015-Mar-25 23:33N 49°05' W 123°28'1717.3
2015-Mar-25 22:34N 49°13' W 123°51'1 1.4
2015-Mar-25 21:33N 49°12' W 123°53'1818.1
2015-Mar-25 20:33N 49°07' W 123°27'1413.9
2015-Mar-25 19:33N 49°00' W 123°08'1111.5
2015-Mar-25 18:34N 49°03' W 123°25'1918.6
2015-Mar-25 17:34N 49°13' W 123°49'3 3.1
2015-Mar-25 16:33N 49°12' W 123°53'1817.9
2015-Mar-25 15:33N 49°07' W 123°27'1414.0
2015-Mar-25 14:33N 49°00' W 123°08'1211.9
2015-Mar-25 13:33N 49°04' W 123°25'1818.3
2015-Mar-25 12:33N 49°13' W 123°50'4 4.1
2015-Mar-25 11:33N 49°10' W 123°53'0 0.0
2015-Mar-25 10:32N 49°10' W 123°53'0 0.0
2015-Mar-25 09:34N 49°10' W 123°53'0 0.0
2015-Mar-25 08:34N 49°10' W 123°53'0 0.2
2015-Mar-25 07:33N 49°10' W 123°53'1616.4
2015-Mar-25 06:33N 49°07' W 123°29'1515.2
2015-Mar-25 05:33N 49°00' W 123°08'1110.6
2015-Mar-25 04:33N 49°03' W 123°23'1919.3
2015-Mar-25 03:33N 49°13' W 123°49'2 1.7
2015-Mar-25 02:33N 49°13' W 123°51'1919.0
2015-Mar-25 01:33N 49°06' W 123°25'1212.1
2015-Mar-25 00:33N 49°00' W 123°08'1312.6
2015-Mar-24 23:33N 49°04' W 123°26'1818.0
2015-Mar-24 22:33N 49°13' W 123°50'2 2.2
2015-Mar-24 21:33N 49°12' W 123°53'1817.7
2015-Mar-24 20:33N 49°07' W 123°27'1414.2
2015-Mar-24 19:33N 49°00' W 123°08'1010.1
2015-Mar-24 18:33N 49°03' W 123°23'1919.5
2015-Mar-24 17:34N 49°13' W 123°48'3 3.4
2015-Mar-24 16:34N 49°12' W 123°53'1817.8
2015-Mar-24 15:33N 49°07' W 123°27'1414.2
2015-Mar-24 14:34N 49°00' W 123°08'1211.8
2015-Mar-24 13:33N 49°04' W 123°25'1817.9
2015-Mar-24 12:33N 49°13' W 123°49'4 4.1
2015-Mar-24 11:29N 49°10' W 123°53'0 0.0
2015-Mar-24 10:28N 49°10' W 123°53'1 0.2
2015-Mar-24 07:32N 49°10' W 123°53'1717.0
2015-Mar-24 06:32N 49°07' W 123°28'1514.9
2015-Mar-24 05:33N 49°00' W 123°08'1111.4
2015-Mar-24 04:34N 49°04' W 123°25'1918.8
2015-Mar-24 03:33N 49°13' W 123°50'1 1.4
2015-Mar-24 02:32N 49°13' W 123°52'2020.8
2015-Mar-24 01:34N 49°05' W 123°23'1111.0
2015-Mar-24 00:33N 49°00' W 123°08'1313.2
2015-Mar-23 23:34N 49°04' W 123°27'1817.7
2015-Mar-23 22:33N 49°13' W 123°51'0 0.3
2015-Mar-23 21:33N 49°13' W 123°52'1818.5
2015-Mar-23 20:33N 49°06' W 123°25'1312.8
2015-Mar-23 19:34N 49°00' W 123°08'1111.2
2015-Mar-23 18:34N 49°03' W 123°24'1918.6
2015-Mar-23 17:33N 49°13' W 123°49'3 3.1
2015-Mar-23 16:33N 49°12' W 123°53'1918.5
2015-Mar-23 15:33N 49°06' W 123°26'1313.4
2015-Mar-23 14:33N 49°00' W 123°08'1313.0
2015-Mar-23 13:33N 49°04' W 123°27'1717.5
2015-Mar-23 12:33N 49°13' W 123°50'4 3.9
2015-Mar-23 11:33N 49°10' W 123°53'0 0.0
2015-Mar-23 10:33N 49°10' W 123°53'0 0.0
2015-Mar-23 09:32N 49°10' W 123°53'0 0.0
2015-Mar-23 08:32N 49°10' W 123°53'0 0.5
2015-Mar-23 07:33N 49°10' W 123°53'1616.6
2015-Mar-23 06:33N 49°07' W 123°29'1515.2
2015-Mar-23 05:33N 49°00' W 123°08'1212.2
2015-Mar-23 04:34N 49°04' W 123°26'1919.4
2015-Mar-23 03:33N 49°13' W 123°52'2 2.2
2015-Mar-23 02:33N 49°13' W 123°49'1717.3
2015-Mar-23 01:33N 49°06' W 123°25'1212.4
2015-Mar-23 00:33N 49°00' W 123°08'1212.4
2015-Mar-22 23:33N 49°04' W 123°26'1918.9
2015-Mar-22 22:33N 49°12' W 123°52'1 1.0
2015-Mar-22 21:34N 49°12' W 123°53'1918.9
2015-Mar-22 20:33N 49°06' W 123°26'1313.1
2015-Mar-22 19:33N 49°00' W 123°08'1212.2
2015-Mar-22 18:33N 49°04' W 123°26'1818.2
2015-Mar-22 17:34N 49°13' W 123°50'4 3.1
2015-Mar-22 16:21N 49°10' W 123°53'0 0.0
2015-Mar-22 15:14N 49°10' W 123°53'0 0.0
2015-Mar-22 13:07N 49°10' W 123°53'0 0.0
2015-Mar-22 12:25N 49°10' W 123°53'0 0.0
2015-Mar-22 10:24N 49°10' W 123°53'0 0.0
2015-Mar-22 09:30N 49°10' W 123°53'0 0.0
2015-Mar-22 08:08N 49°10' W 123°53'0 0.0
2015-Mar-22 07:26N 49°10' W 123°53'0 0.0
2015-Mar-22 06:31N 49°10' W 123°53'0 0.0
2015-Mar-22 05:28N 49°10' W 123°53'0 0.0
2015-Mar-22 04:31N 49°10' W 123°53'0 0.0
2015-Mar-22 03:12N 49°10' W 123°53'0 0.0
2015-Mar-22 02:15N 49°10' W 123°53'0 0.0
2015-Mar-22 01:32N 49°10' W 123°53'0 0.0
2015-Mar-22 00:32N 49°10' W 123°53'9 9.0
2015-Mar-21 23:32N 49°11' W 123°40'1919.9
2015-Mar-21 22:34N 49°01' W 123°15'1 1.0
2015-Mar-21 21:34N 49°00' W 123°14'1817.6
2015-Mar-21 20:33N 49°09' W 123°37'11 9.3
2015-Mar-21 19:25N 49°10' W 123°53'910.5
2015-Mar-21 18:33N 49°11' W 123°40'1818.5
2015-Mar-21 17:34N 49°02' W 123°15'1 1.2
2015-Mar-21 16:33N 49°00' W 123°15'1817.6
2015-Mar-21 15:33N 49°10' W 123°38'1010.3
2015-Mar-21 14:33N 49°10' W 123°53'0 0.0
2015-Mar-21 13:33N 49°10' W 123°53'0 0.0
2015-Mar-21 12:32N 49°10' W 123°53'0 0.0
2015-Mar-21 11:32N 49°10' W 123°53'0 0.0
2015-Mar-21 10:25N 49°10' W 123°53'0 0.0
2015-Mar-21 08:19N 49°10' W 123°53'0 0.6
2015-Mar-21 07:33N 49°10' W 123°53'1716.7
2015-Mar-21 06:32N 49°07' W 123°28'1515.1
2015-Mar-21 05:34N 49°00' W 123°08'1212.0
2015-Mar-21 04:33N 49°04' W 123°25'1818.3
2015-Mar-21 03:33N 49°13' W 123°50'2 1.9
2015-Mar-21 02:33N 49°12' W 123°52'2019.9
2015-Mar-21 01:34N 49°05' W 123°24'1211.6
2015-Mar-21 00:33N 49°00' W 123°08'1514.5
2015-Mar-20 23:33N 49°05' W 123°29'1717.2
2015-Mar-20 22:33N 49°12' W 123°53'1 0.9
2015-Mar-20 21:33N 49°13' W 123°52'1818.3
2015-Mar-20 20:33N 49°06' W 123°26'1313.3
2015-Mar-20 19:33N 49°00' W 123°08'1212.2
2015-Mar-20 18:33N 49°04' W 123°25'1918.7
2015-Mar-20 17:33N 49°13' W 123°50'1 0.8
2015-Mar-20 16:33N 49°13' W 123°51'1919.4
2015-Mar-20 15:33N 49°05' W 123°24'1111.5
2015-Mar-20 14:33N 49°00' W 123°08'1312.8
2015-Mar-20 13:33N 49°05' W 123°27'1918.5
2015-Mar-20 12:33N 49°12' W 123°53'2 1.9
2015-Mar-20 11:19N 49°10' W 123°53'0 0.0
2015-Mar-20 10:31N 49°10' W 123°53'1 0.2
2015-Mar-20 07:33N 49°10' W 123°53'1717.4
2015-Mar-20 06:33N 49°06' W 123°27'1414.2
2015-Mar-20 05:34N 49°00' W 123°08'1413.6
2015-Mar-20 04:33N 49°05' W 123°28'1818.2
2015-Mar-20 03:33N 49°12' W 123°53'4 3.6
2015-Mar-20 02:33N 49°13' W 123°48'2020.0
2015-Mar-20 01:34N 49°04' W 123°21'9 9.2
2015-Mar-20 00:33N 49°00' W 123°08'1413.9
2015-Mar-19 23:33N 49°05' W 123°28'1817.7
2015-Mar-19 22:33N 49°12' W 123°53'0 0.4
2015-Mar-19 21:33N 49°13' W 123°52'1818.0
2015-Mar-19 20:33N 49°06' W 123°27'1412.5
2015-Mar-19 19:28N 49°00' W 123°08'1112.6
2015-Mar-19 18:34N 49°03' W 123°25'1918.5
2015-Mar-19 17:33N 49°13' W 123°49'2 1.7
2015-Mar-19 16:33N 49°13' W 123°51'1818.0
2015-Mar-19 15:34N 49°06' W 123°26'1313.1
2015-Mar-19 14:34N 49°00' W 123°08'1212.4
2015-Mar-19 13:33N 49°04' W 123°26'1818.1
2015-Mar-19 12:33N 49°13' W 123°50'4 3.0
2015-Mar-19 11:17N 49°10' W 123°53'0 0.0
2015-Mar-19 09:31N 49°10' W 123°53'0 0.0
2015-Mar-19 08:28N 49°10' W 123°53'1 1.2
2015-Mar-19 07:33N 49°11' W 123°53'1716.9
2015-Mar-19 06:33N 49°07' W 123°28'1514.7
2015-Mar-19 05:33N 49°00' W 123°08'1212.5
2015-Mar-19 04:33N 49°04' W 123°26'1818.5
2015-Mar-19 03:33N 49°13' W 123°51'0 0.3
2015-Mar-19 02:33N 49°13' W 123°51'1818.2
2015-Mar-19 01:33N 49°06' W 123°26'1312.9
2015-Mar-19 00:33N 49°00' W 123°08'1313.4
2015-Mar-18 23:34N 49°05' W 123°27'1818.1
2015-Mar-18 22:34N 49°12' W 123°53'1 0.7
2015-Mar-18 21:33N 49°13' W 123°52'1817.8
2015-Mar-18 20:33N 49°06' W 123°26'1313.0
2015-Mar-18 19:31N 49°00' W 123°08'1212.3
2015-Mar-18 18:33N 49°04' W 123°25'  

Dump ship's entire track history